sensor_id;sensor_type;location;lat;lon;timestamp;P1;durP1;ratioP1;P2;durP2;ratioP2
18021;SDS011;9136;48.822;7.966;2023-04-03T00:00:28;20.43;;;19.37;;
18021;SDS011;9136;48.822;7.966;2023-04-03T00:03:19;18.90;;;18.10;;
18021;SDS011;9136;48.822;7.966;2023-04-03T00:06:29;18.53;;;17.73;;
18021;SDS011;9136;48.822;7.966;2023-04-03T00:09:21;19.67;;;18.80;;
18021;SDS011;9136;48.822;7.966;2023-04-03T00:12:14;18.53;;;17.73;;
18021;SDS011;9136;48.822;7.966;2023-04-03T00:15:08;19.63;;;18.77;;
18021;SDS011;9136;48.822;7.966;2023-04-03T00:18:19;21.83;;;20.83;;
18021;SDS011;9136;48.822;7.966;2023-04-03T00:21:19;17.90;;;17.10;;
18021;SDS011;9136;48.822;7.966;2023-04-03T00:24:10;19.67;;;18.77;;
18021;SDS011;9136;48.822;7.966;2023-04-03T00:27:09;19.33;;;18.53;;
18021;SDS011;9136;48.822;7.966;2023-04-03T00:30:00;19.70;;;18.80;;
18021;SDS011;9136;48.822;7.966;2023-04-03T00:32:52;20.03;;;19.13;;
18021;SDS011;9136;48.822;7.966;2023-04-03T00:35:40;17.33;;;16.60;;
18021;SDS011;9136;48.822;7.966;2023-04-03T00:38:28;18.70;;;17.90;;
18021;SDS011;9136;48.822;7.966;2023-04-03T00:41:24;19.97;;;19.07;;
18021;SDS011;9136;48.822;7.966;2023-04-03T00:47:45;19.20;;;18.27;;
18021;SDS011;9136;48.822;7.966;2023-04-03T00:50:34;18.17;;;17.33;;
18021;SDS011;9136;48.822;7.966;2023-04-03T00:53:25;20.20;;;19.17;;
18021;SDS011;9136;48.822;7.966;2023-04-03T00:56:19;19.20;;;18.40;;
18021;SDS011;9136;48.822;7.966;2023-04-03T00:59:13;19.33;;;18.53;;
18021;SDS011;9136;48.822;7.966;2023-04-03T01:02:08;18.73;;;17.90;;
18021;SDS011;9136;48.822;7.966;2023-04-03T01:04:58;17.67;;;16.87;;
18021;SDS011;9136;48.822;7.966;2023-04-03T01:07:50;18.77;;;17.97;;
18021;SDS011;9136;48.822;7.966;2023-04-03T01:10:41;18.87;;;18.07;;
18021;SDS011;9136;48.822;7.966;2023-04-03T01:13:39;21.13;;;20.23;;
18021;SDS011;9136;48.822;7.966;2023-04-03T01:16:28;20.83;;;19.93;;
18021;SDS011;9136;48.822;7.966;2023-04-03T01:19:18;20.07;;;19.07;;
18021;SDS011;9136;48.822;7.966;2023-04-03T01:22:17;20.70;;;19.80;;
18021;SDS011;9136;48.822;7.966;2023-04-03T01:25:18;19.70;;;18.70;;
18021;SDS011;9136;48.822;7.966;2023-04-03T01:28:10;18.17;;;17.37;;
18021;SDS011;9136;48.822;7.966;2023-04-03T01:31:05;18.43;;;17.63;;
18021;SDS011;9136;48.822;7.966;2023-04-03T01:34:03;17.73;;;16.93;;
18021;SDS011;9136;48.822;7.966;2023-04-03T01:36:51;19.10;;;18.30;;
18021;SDS011;9136;48.822;7.966;2023-04-03T01:39:41;21.93;;;20.97;;
18021;SDS011;9136;48.822;7.966;2023-04-03T01:42:31;20.50;;;19.60;;
18021;SDS011;9136;48.822;7.966;2023-04-03T01:45:28;17.50;;;16.73;;
18021;SDS011;9136;48.822;7.966;2023-04-03T01:48:18;18.00;;;17.20;;
18021;SDS011;9136;48.822;7.966;2023-04-03T01:51:09;20.47;;;19.57;;
18021;SDS011;9136;48.822;7.966;2023-04-03T01:53:58;20.97;;;20.07;;
18021;SDS011;9136;48.822;7.966;2023-04-03T01:56:45;18.00;;;17.20;;
18021;SDS011;9136;48.822;7.966;2023-04-03T01:59:35;18.07;;;17.27;;
18021;SDS011;9136;48.822;7.966;2023-04-03T02:02:24;17.87;;;17.07;;
18021;SDS011;9136;48.822;7.966;2023-04-03T02:05:14;20.07;;;18.93;;
18021;SDS011;9136;48.822;7.966;2023-04-03T02:08:08;20.03;;;19.13;;
18021;SDS011;9136;48.822;7.966;2023-04-03T02:10:56;21.23;;;20.33;;
18021;SDS011;9136;48.822;7.966;2023-04-03T02:13:46;20.57;;;19.67;;
18021;SDS011;9136;48.822;7.966;2023-04-03T02:16:34;17.60;;;16.83;;
18021;SDS011;9136;48.822;7.966;2023-04-03T02:19:24;20.87;;;19.97;;
18021;SDS011;9136;48.822;7.966;2023-04-03T02:22:13;18.47;;;17.67;;
18021;SDS011;9136;48.822;7.966;2023-04-03T02:25:05;19.40;;;18.57;;
18021;SDS011;9136;48.822;7.966;2023-04-03T02:27:53;21.60;;;20.60;;
18021;SDS011;9136;48.822;7.966;2023-04-03T02:30:48;22.03;;;21.03;;
18021;SDS011;9136;48.822;7.966;2023-04-03T02:33:42;19.03;;;18.23;;
18021;SDS011;9136;48.822;7.966;2023-04-03T02:36:31;21.10;;;20.20;;
18021;SDS011;9136;48.822;7.966;2023-04-03T02:39:19;20.47;;;19.57;;
18021;SDS011;9136;48.822;7.966;2023-04-03T02:42:10;20.90;;;20.00;;
18021;SDS011;9136;48.822;7.966;2023-04-03T02:45:00;20.90;;;20.00;;
18021;SDS011;9136;48.822;7.966;2023-04-03T02:47:48;20.40;;;19.50;;
18021;SDS011;9136;48.822;7.966;2023-04-03T02:50:38;21.37;;;20.47;;
18021;SDS011;9136;48.822;7.966;2023-04-03T02:53:27;21.27;;;20.33;;
18021;SDS011;9136;48.822;7.966;2023-04-03T02:56:17;22.30;;;21.30;;
18021;SDS011;9136;48.822;7.966;2023-04-03T02:59:15;20.87;;;19.97;;
18021;SDS011;9136;48.822;7.966;2023-04-03T03:02:03;23.03;;;22.03;;
18021;SDS011;9136;48.822;7.966;2023-04-03T03:04:51;19.50;;;18.60;;
18021;SDS011;9136;48.822;7.966;2023-04-03T03:07:40;21.47;;;20.47;;
18021;SDS011;9136;48.822;7.966;2023-04-03T03:10:30;20.33;;;19.43;;
18021;SDS011;9136;48.822;7.966;2023-04-03T03:13:18;17.60;;;16.80;;
18021;SDS011;9136;48.822;7.966;2023-04-03T03:16:08;20.50;;;19.57;;
18021;SDS011;9136;48.822;7.966;2023-04-03T03:18:56;21.27;;;20.37;;
18021;SDS011;9136;48.822;7.966;2023-04-03T03:21:45;22.53;;;21.53;;
18021;SDS011;9136;48.822;7.966;2023-04-03T03:24:33;20.17;;;19.27;;
18021;SDS011;9136;48.822;7.966;2023-04-03T03:27:22;21.27;;;20.37;;
18021;SDS011;9136;48.822;7.966;2023-04-03T03:30:10;22.37;;;21.37;;
18021;SDS011;9136;48.822;7.966;2023-04-03T03:33:02;24.57;;;23.43;;
18021;SDS011;9136;48.822;7.966;2023-04-03T03:35:50;21.37;;;20.43;;
18021;SDS011;9136;48.822;7.966;2023-04-03T03:38:39;22.53;;;21.53;;
18021;SDS011;9136;48.822;7.966;2023-04-03T03:41:30;19.10;;;18.30;;
18021;SDS011;9136;48.822;7.966;2023-04-03T03:44:22;22.83;;;21.83;;
18021;SDS011;9136;48.822;7.966;2023-04-03T03:47:22;23.83;;;22.73;;
18021;SDS011;9136;48.822;7.966;2023-04-03T03:50:15;23.03;;;22.03;;
18021;SDS011;9136;48.822;7.966;2023-04-03T03:53:03;22.27;;;21.27;;
18021;SDS011;9136;48.822;7.966;2023-04-03T03:56:00;20.47;;;19.57;;
18021;SDS011;9136;48.822;7.966;2023-04-03T03:58:50;21.10;;;20.13;;
18021;SDS011;9136;48.822;7.966;2023-04-03T04:01:52;22.77;;;21.77;;
18021;SDS011;9136;48.822;7.966;2023-04-03T04:04:41;21.67;;;20.70;;
18021;SDS011;9136;48.822;7.966;2023-04-03T04:07:31;21.77;;;20.77;;
18021;SDS011;9136;48.822;7.966;2023-04-03T04:10:29;21.00;;;20.10;;
18021;SDS011;9136;48.822;7.966;2023-04-03T04:13:26;20.80;;;19.63;;
18021;SDS011;9136;48.822;7.966;2023-04-03T04:16:15;23.40;;;22.40;;
18021;SDS011;9136;48.822;7.966;2023-04-03T04:19:19;21.57;;;20.57;;
18021;SDS011;9136;48.822;7.966;2023-04-03T04:22:08;20.10;;;19.20;;
18021;SDS011;9136;48.822;7.966;2023-04-03T04:25:00;21.30;;;20.40;;
18021;SDS011;9136;48.822;7.966;2023-04-03T04:27:48;21.30;;;20.40;;
18021;SDS011;9136;48.822;7.966;2023-04-03T04:30:50;24.57;;;23.47;;
18021;SDS011;9136;48.822;7.966;2023-04-03T04:33:40;20.97;;;20.03;;
18021;SDS011;9136;48.822;7.966;2023-04-03T04:36:32;22.77;;;21.77;;
18021;SDS011;9136;48.822;7.966;2023-04-03T04:39:42;21.10;;;20.17;;
18021;SDS011;9136;48.822;7.966;2023-04-03T04:42:51;22.63;;;21.63;;
18021;SDS011;9136;48.822;7.966;2023-04-03T04:46:17;23.50;;;22.50;;
18021;SDS011;9136;48.822;7.966;2023-04-03T04:49:20;22.13;;;21.13;;
18021;SDS011;9136;48.822;7.966;2023-04-03T04:52:37;21.83;;;20.83;;
18021;SDS011;9136;48.822;7.966;2023-04-03T04:55:28;19.43;;;18.57;;
18021;SDS011;9136;48.822;7.966;2023-04-03T04:58:21;23.53;;;22.53;;
18021;SDS011;9136;48.822;7.966;2023-04-03T05:01:10;21.77;;;20.77;;
18021;SDS011;9136;48.822;7.966;2023-04-03T05:03:58;25.83;;;24.73;;
18021;SDS011;9136;48.822;7.966;2023-04-03T05:06:47;22.20;;;21.20;;
18021;SDS011;9136;48.822;7.966;2023-04-03T05:09:36;21.40;;;20.47;;
18021;SDS011;9136;48.822;7.966;2023-04-03T05:12:24;22.10;;;21.10;;
18021;SDS011;9136;48.822;7.966;2023-04-03T05:15:18;26.37;;;25.00;;
18021;SDS011;9136;48.822;7.966;2023-04-03T05:18:07;22.80;;;21.80;;
18021;SDS011;9136;48.822;7.966;2023-04-03T05:20:55;21.40;;;20.40;;
18021;SDS011;9136;48.822;7.966;2023-04-03T05:23:43;21.07;;;20.17;;
18021;SDS011;9136;48.822;7.966;2023-04-03T05:26:31;21.60;;;20.60;;
18021;SDS011;9136;48.822;7.966;2023-04-03T05:29:20;22.73;;;21.73;;
18021;SDS011;9136;48.822;7.966;2023-04-03T05:32:09;25.00;;;23.77;;
18021;SDS011;9136;48.822;7.966;2023-04-03T05:35:04;22.53;;;21.43;;
18021;SDS011;9136;48.822;7.966;2023-04-03T05:37:53;21.13;;;20.13;;
18021;SDS011;9136;48.822;7.966;2023-04-03T05:40:45;20.47;;;19.57;;
18021;SDS011;9136;48.822;7.966;2023-04-03T05:43:34;21.07;;;20.07;;
18021;SDS011;9136;48.822;7.966;2023-04-03T05:46:24;21.60;;;20.63;;
18021;SDS011;9136;48.822;7.966;2023-04-03T05:49:14;22.77;;;21.77;;
18021;SDS011;9136;48.822;7.966;2023-04-03T05:52:04;20.73;;;19.83;;
18021;SDS011;9136;48.822;7.966;2023-04-03T05:54:53;22.60;;;21.60;;
18021;SDS011;9136;48.822;7.966;2023-04-03T05:57:41;21.97;;;20.97;;
18021;SDS011;9136;48.822;7.966;2023-04-03T06:00:29;21.67;;;20.67;;
18021;SDS011;9136;48.822;7.966;2023-04-03T06:03:17;20.17;;;19.27;;
18021;SDS011;9136;48.822;7.966;2023-04-03T06:06:11;20.20;;;19.30;;
18021;SDS011;9136;48.822;7.966;2023-04-03T06:09:01;19.47;;;18.67;;
18021;SDS011;9136;48.822;7.966;2023-04-03T06:11:51;22.27;;;21.17;;
18021;SDS011;9136;48.822;7.966;2023-04-03T06:14:39;22.63;;;21.63;;
18021;SDS011;9136;48.822;7.966;2023-04-03T06:17:28;20.60;;;19.70;;
18021;SDS011;9136;48.822;7.966;2023-04-03T06:20:17;22.13;;;21.13;;
18021;SDS011;9136;48.822;7.966;2023-04-03T06:23:07;21.87;;;20.83;;
18021;SDS011;9136;48.822;7.966;2023-04-03T06:25:56;23.17;;;22.17;;
18021;SDS011;9136;48.822;7.966;2023-04-03T06:28:46;20.37;;;19.47;;
18021;SDS011;9136;48.822;7.966;2023-04-03T06:31:34;20.23;;;19.33;;
18021;SDS011;9136;48.822;7.966;2023-04-03T06:34:34;20.37;;;19.47;;
18021;SDS011;9136;48.822;7.966;2023-04-03T06:37:22;22.27;;;21.27;;
18021;SDS011;9136;48.822;7.966;2023-04-03T06:40:17;21.67;;;20.67;;
18021;SDS011;9136;48.822;7.966;2023-04-03T06:43:09;19.70;;;18.83;;
18021;SDS011;9136;48.822;7.966;2023-04-03T06:45:57;20.17;;;19.27;;
18021;SDS011;9136;48.822;7.966;2023-04-03T06:48:53;20.17;;;19.27;;
18021;SDS011;9136;48.822;7.966;2023-04-03T06:51:42;19.90;;;19.00;;
18021;SDS011;9136;48.822;7.966;2023-04-03T06:54:32;22.60;;;21.60;;
18021;SDS011;9136;48.822;7.966;2023-04-03T06:57:22;19.83;;;18.70;;
18021;SDS011;9136;48.822;7.966;2023-04-03T07:00:11;19.37;;;18.57;;
18021;SDS011;9136;48.822;7.966;2023-04-03T07:03:00;19.90;;;19.00;;
18021;SDS011;9136;48.822;7.966;2023-04-03T07:05:48;19.43;;;18.57;;
18021;SDS011;9136;48.822;7.966;2023-04-03T07:08:36;22.73;;;21.73;;
18021;SDS011;9136;48.822;7.966;2023-04-03T07:11:24;21.10;;;20.20;;
18021;SDS011;9136;48.822;7.966;2023-04-03T07:14:14;17.87;;;17.07;;
18021;SDS011;9136;48.822;7.966;2023-04-03T07:17:02;20.03;;;19.13;;
18021;SDS011;9136;48.822;7.966;2023-04-03T07:19:52;22.30;;;21.30;;
18021;SDS011;9136;48.822;7.966;2023-04-03T07:22:43;18.70;;;17.90;;
18021;SDS011;9136;48.822;7.966;2023-04-03T07:25:31;19.00;;;18.20;;
18021;SDS011;9136;48.822;7.966;2023-04-03T07:28:20;19.03;;;18.23;;
18021;SDS011;9136;48.822;7.966;2023-04-03T07:31:11;18.20;;;17.40;;
18021;SDS011;9136;48.822;7.966;2023-04-03T07:34:00;19.10;;;18.30;;
18021;SDS011;9136;48.822;7.966;2023-04-03T07:36:48;20.33;;;19.43;;
18021;SDS011;9136;48.822;7.966;2023-04-03T07:39:36;19.73;;;18.83;;
18021;SDS011;9136;48.822;7.966;2023-04-03T07:42:26;19.93;;;19.07;;
18021;SDS011;9136;48.822;7.966;2023-04-03T07:45:14;21.13;;;20.03;;
18021;SDS011;9136;48.822;7.966;2023-04-03T07:48:05;18.40;;;17.60;;
18021;SDS011;9136;48.822;7.966;2023-04-03T07:50:53;18.73;;;17.93;;
18021;SDS011;9136;48.822;7.966;2023-04-03T07:53:41;19.80;;;18.90;;
18021;SDS011;9136;48.822;7.966;2023-04-03T07:56:29;18.37;;;17.57;;
18021;SDS011;9136;48.822;7.966;2023-04-03T07:59:18;20.17;;;19.27;;
18021;SDS011;9136;48.822;7.966;2023-04-03T08:02:08;18.07;;;17.27;;
18021;SDS011;9136;48.822;7.966;2023-04-03T08:04:58;18.90;;;18.10;;
18021;SDS011;9136;48.822;7.966;2023-04-03T08:07:46;17.57;;;16.80;;
18021;SDS011;9136;48.822;7.966;2023-04-03T08:10:36;21.27;;;20.37;;
18021;SDS011;9136;48.822;7.966;2023-04-03T08:13:29;19.47;;;18.63;;
18021;SDS011;9136;48.822;7.966;2023-04-03T08:16:18;19.93;;;19.03;;
18021;SDS011;9136;48.822;7.966;2023-04-03T08:19:11;20.13;;;19.23;;
18021;SDS011;9136;48.822;7.966;2023-04-03T08:22:02;20.13;;;19.23;;
18021;SDS011;9136;48.822;7.966;2023-04-03T08:24:51;18.27;;;17.47;;
18021;SDS011;9136;48.822;7.966;2023-04-03T08:27:39;19.73;;;18.90;;
18021;SDS011;9136;48.822;7.966;2023-04-03T08:30:26;18.43;;;17.63;;
18021;SDS011;9136;48.822;7.966;2023-04-03T08:33:14;16.47;;;15.77;;
18021;SDS011;9136;48.822;7.966;2023-04-03T08:36:03;19.93;;;19.07;;
18021;SDS011;9136;48.822;7.966;2023-04-03T08:38:54;20.20;;;19.30;;
18021;SDS011;9136;48.822;7.966;2023-04-03T08:41:44;21.00;;;20.10;;
18021;SDS011;9136;48.822;7.966;2023-04-03T08:44:37;18.50;;;17.70;;
18021;SDS011;9136;48.822;7.966;2023-04-03T08:47:31;17.03;;;16.30;;
18021;SDS011;9136;48.822;7.966;2023-04-03T08:50:29;19.60;;;18.77;;
18021;SDS011;9136;48.822;7.966;2023-04-03T08:53:25;20.23;;;19.33;;
18021;SDS011;9136;48.822;7.966;2023-04-03T08:56:19;17.23;;;16.53;;
18021;SDS011;9136;48.822;7.966;2023-04-03T08:59:12;16.03;;;15.33;;
18021;SDS011;9136;48.822;7.966;2023-04-03T09:02:26;20.47;;;19.57;;
18021;SDS011;9136;48.822;7.966;2023-04-03T09:05:22;18.70;;;17.90;;
18021;SDS011;9136;48.822;7.966;2023-04-03T09:08:21;18.40;;;17.60;;
18021;SDS011;9136;48.822;7.966;2023-04-03T09:11:13;18.80;;;18.00;;
18021;SDS011;9136;48.822;7.966;2023-04-03T09:14:12;19.13;;;18.23;;
18021;SDS011;9136;48.822;7.966;2023-04-03T09:17:12;16.53;;;15.83;;
18021;SDS011;9136;48.822;7.966;2023-04-03T09:20:15;17.60;;;16.60;;
18021;SDS011;9136;48.822;7.966;2023-04-03T09:23:14;17.73;;;16.93;;
18021;SDS011;9136;48.822;7.966;2023-04-03T09:26:07;16.07;;;15.37;;
18021;SDS011;9136;48.822;7.966;2023-04-03T09:29:02;15.83;;;15.13;;
18021;SDS011;9136;48.822;7.966;2023-04-03T09:31:57;17.50;;;16.70;;
18021;SDS011;9136;48.822;7.966;2023-04-03T09:34:48;18.00;;;17.20;;
18021;SDS011;9136;48.822;7.966;2023-04-03T09:37:39;18.27;;;17.27;;
18021;SDS011;9136;48.822;7.966;2023-04-03T09:40:35;16.93;;;16.20;;
18021;SDS011;9136;48.822;7.966;2023-04-03T09:43:28;17.00;;;16.27;;
18021;SDS011;9136;48.822;7.966;2023-04-03T09:46:24;17.30;;;16.57;;
18021;SDS011;9136;48.822;7.966;2023-04-03T09:49:29;16.93;;;16.23;;
18021;SDS011;9136;48.822;7.966;2023-04-03T09:52:20;16.60;;;15.90;;
18021;SDS011;9136;48.822;7.966;2023-04-03T09:55:16;16.17;;;15.47;;
18021;SDS011;9136;48.822;7.966;2023-04-03T09:58:21;16.13;;;15.43;;
18021;SDS011;9136;48.822;7.966;2023-04-03T10:01:26;14.87;;;14.27;;
18021;SDS011;9136;48.822;7.966;2023-04-03T10:04:17;14.73;;;14.10;;
18021;SDS011;9136;48.822;7.966;2023-04-03T10:14:23;16.77;;;16.07;;
18021;SDS011;9136;48.822;7.966;2023-04-03T10:17:14;14.67;;;14.07;;
18021;SDS011;9136;48.822;7.966;2023-04-03T10:20:15;17.03;;;16.27;;
18021;SDS011;9136;48.822;7.966;2023-04-03T10:23:24;15.83;;;15.13;;
18021;SDS011;9136;48.822;7.966;2023-04-03T10:26:28;18.57;;;17.67;;
18021;SDS011;9136;48.822;7.966;2023-04-03T10:29:22;13.83;;;13.23;;
18021;SDS011;9136;48.822;7.966;2023-04-03T10:32:26;16.63;;;15.87;;
18021;SDS011;9136;48.822;7.966;2023-04-03T10:35:33;17.07;;;16.30;;
18021;SDS011;9136;48.822;7.966;2023-04-03T10:38:42;16.20;;;15.50;;
18021;SDS011;9136;48.822;7.966;2023-04-03T10:41:49;16.50;;;15.73;;
18021;SDS011;9136;48.822;7.966;2023-04-03T10:44:55;16.27;;;15.57;;
18021;SDS011;9136;48.822;7.966;2023-04-03T10:48:16;15.40;;;14.70;;
18021;SDS011;9136;48.822;7.966;2023-04-03T10:51:18;15.37;;;14.67;;
18021;SDS011;9136;48.822;7.966;2023-04-03T10:54:26;15.40;;;14.70;;
18021;SDS011;9136;48.822;7.966;2023-04-03T10:57:21;16.07;;;15.37;;
18021;SDS011;9136;48.822;7.966;2023-04-03T11:00:14;14.27;;;13.67;;
18021;SDS011;9136;48.822;7.966;2023-04-03T11:03:11;13.97;;;13.37;;
18021;SDS011;9136;48.822;7.966;2023-04-03T11:06:08;13.97;;;13.37;;
18021;SDS011;9136;48.822;7.966;2023-04-03T11:09:01;15.13;;;14.43;;
18021;SDS011;9136;48.822;7.966;2023-04-03T11:12:11;15.03;;;14.40;;
18021;SDS011;9136;48.822;7.966;2023-04-03T11:15:16;15.83;;;15.13;;
18021;SDS011;9136;48.822;7.966;2023-04-03T11:18:13;15.83;;;15.13;;
18021;SDS011;9136;48.822;7.966;2023-04-03T11:21:26;17.07;;;16.37;;
18021;SDS011;9136;48.822;7.966;2023-04-03T11:24:58;14.97;;;14.37;;
18021;SDS011;9136;48.822;7.966;2023-04-03T11:27:55;16.93;;;15.17;;
18021;SDS011;9136;48.822;7.966;2023-04-03T11:30:49;16.37;;;15.57;;
18021;SDS011;9136;48.822;7.966;2023-04-03T11:33:54;17.40;;;16.63;;
18021;SDS011;9136;48.822;7.966;2023-04-03T11:36:52;16.23;;;15.53;;
18021;SDS011;9136;48.822;7.966;2023-04-03T11:39:51;15.17;;;14.47;;
18021;SDS011;9136;48.822;7.966;2023-04-03T11:43:03;18.87;;;18.07;;
18021;SDS011;9136;48.822;7.966;2023-04-03T11:46:03;16.87;;;16.17;;
18021;SDS011;9136;48.822;7.966;2023-04-03T11:49:08;15.03;;;14.43;;
18021;SDS011;9136;48.822;7.966;2023-04-03T11:55:58;17.77;;;16.97;;
18021;SDS011;9136;48.822;7.966;2023-04-03T11:59:21;15.43;;;14.77;;
18021;SDS011;9136;48.822;7.966;2023-04-03T12:05:57;18.83;;;18.03;;
18021;SDS011;9136;48.822;7.966;2023-04-03T12:09:28;17.63;;;16.83;;
18021;SDS011;9136;48.822;7.966;2023-04-03T12:12:29;16.60;;;15.90;;
18021;SDS011;9136;48.822;7.966;2023-04-03T12:15:43;15.80;;;15.10;;
18021;SDS011;9136;48.822;7.966;2023-04-03T12:18:57;15.90;;;15.20;;
18021;SDS011;9136;48.822;7.966;2023-04-03T12:22:08;14.43;;;13.83;;
18021;SDS011;9136;48.822;7.966;2023-04-03T12:28:38;16.23;;;15.53;;
18021;SDS011;9136;48.822;7.966;2023-04-03T12:31:34;15.60;;;14.90;;
18021;SDS011;9136;48.822;7.966;2023-04-03T12:34:35;16.70;;;16.00;;
18021;SDS011;9136;48.822;7.966;2023-04-03T12:37:57;16.03;;;15.33;;
18021;SDS011;9136;48.822;7.966;2023-04-03T12:41:11;15.13;;;14.50;;
18021;SDS011;9136;48.822;7.966;2023-04-03T12:44:15;16.23;;;15.53;;
18021;SDS011;9136;48.822;7.966;2023-04-03T12:47:23;16.33;;;15.63;;
18021;SDS011;9136;48.822;7.966;2023-04-03T12:50:37;15.57;;;14.87;;
18021;SDS011;9136;48.822;7.966;2023-04-03T12:53:33;14.43;;;13.83;;
18021;SDS011;9136;48.822;7.966;2023-04-03T12:56:25;14.83;;;14.23;;
18021;SDS011;9136;48.822;7.966;2023-04-03T12:59:18;16.27;;;15.57;;
18021;SDS011;9136;48.822;7.966;2023-04-03T13:02:15;17.10;;;16.40;;
18021;SDS011;9136;48.822;7.966;2023-04-03T13:05:09;13.90;;;13.30;;
18021;SDS011;9136;48.822;7.966;2023-04-03T13:08:09;14.97;;;14.37;;
18021;SDS011;9136;48.822;7.966;2023-04-03T13:11:05;16.33;;;15.63;;
18021;SDS011;9136;48.822;7.966;2023-04-03T13:13:58;14.20;;;13.60;;
18021;SDS011;9136;48.822;7.966;2023-04-03T13:17:10;15.33;;;14.67;;
18021;SDS011;9136;48.822;7.966;2023-04-03T13:20:48;17.27;;;16.47;;
18021;SDS011;9136;48.822;7.966;2023-04-03T13:23:27;15.37;;;14.67;;
18021;SDS011;9136;48.822;7.966;2023-04-03T13:26:19;16.87;;;16.07;;
18021;SDS011;9136;48.822;7.966;2023-04-03T13:29:26;14.20;;;13.60;;
18021;SDS011;9136;48.822;7.966;2023-04-03T13:32:57;15.63;;;14.93;;
18021;SDS011;9136;48.822;7.966;2023-04-03T13:35:54;16.03;;;15.33;;
18021;SDS011;9136;48.822;7.966;2023-04-03T13:38:59;15.87;;;15.17;;
18021;SDS011;9136;48.822;7.966;2023-04-03T13:41:55;16.80;;;16.10;;
18021;SDS011;9136;48.822;7.966;2023-04-03T13:48:25;17.00;;;16.20;;
18021;SDS011;9136;48.822;7.966;2023-04-03T13:51:57;16.07;;;15.37;;
18021;SDS011;9136;48.822;7.966;2023-04-03T13:55:19;17.20;;;16.47;;
18021;SDS011;9136;48.822;7.966;2023-04-03T13:58:19;15.17;;;14.53;;
18021;SDS011;9136;48.822;7.966;2023-04-03T14:05:23;18.13;;;17.33;;
18021;SDS011;9136;48.822;7.966;2023-04-03T14:08:33;16.43;;;15.73;;
18021;SDS011;9136;48.822;7.966;2023-04-03T14:12:15;18.47;;;17.67;;
18021;SDS011;9136;48.822;7.966;2023-04-03T14:15:29;18.20;;;17.40;;
18021;SDS011;9136;48.822;7.966;2023-04-03T14:18:31;17.97;;;17.17;;
18021;SDS011;9136;48.822;7.966;2023-04-03T14:22:42;18.17;;;17.37;;
18021;SDS011;9136;48.822;7.966;2023-04-03T14:25:25;16.43;;;15.73;;
18021;SDS011;9136;48.822;7.966;2023-04-03T14:28:16;17.03;;;16.33;;
18021;SDS011;9136;48.822;7.966;2023-04-03T14:31:35;14.43;;;13.83;;
18021;SDS011;9136;48.822;7.966;2023-04-03T14:34:25;16.20;;;15.40;;
18021;SDS011;9136;48.822;7.966;2023-04-03T14:37:30;16.33;;;15.63;;
18021;SDS011;9136;48.822;7.966;2023-04-03T14:40:23;14.30;;;13.70;;
18021;SDS011;9136;48.822;7.966;2023-04-03T14:43:13;15.73;;;15.03;;
18021;SDS011;9136;48.822;7.966;2023-04-03T14:46:04;18.73;;;17.93;;
18021;SDS011;9136;48.822;7.966;2023-04-03T14:48:55;15.63;;;14.93;;
18021;SDS011;9136;48.822;7.966;2023-04-03T14:52:23;15.87;;;15.17;;
18021;SDS011;9136;48.822;7.966;2023-04-03T14:56:08;16.07;;;15.37;;
18021;SDS011;9136;48.822;7.966;2023-04-03T14:58:57;18.30;;;17.50;;
18021;SDS011;9136;48.822;7.966;2023-04-03T15:01:58;15.50;;;14.80;;
18021;SDS011;9136;48.822;7.966;2023-04-03T15:05:05;18.00;;;17.20;;
18021;SDS011;9136;48.822;7.966;2023-04-03T15:08:13;15.40;;;14.70;;
18021;SDS011;9136;48.822;7.966;2023-04-03T15:11:06;17.77;;;16.97;;
18021;SDS011;9136;48.822;7.966;2023-04-03T15:13:57;16.40;;;15.70;;
18021;SDS011;9136;48.822;7.966;2023-04-03T15:16:46;17.60;;;16.73;;
18021;SDS011;9136;48.822;7.966;2023-04-03T15:19:47;18.10;;;17.30;;
18021;SDS011;9136;48.822;7.966;2023-04-03T15:22:54;14.77;;;14.17;;
18021;SDS011;9136;48.822;7.966;2023-04-03T15:25:43;14.47;;;13.87;;
18021;SDS011;9136;48.822;7.966;2023-04-03T15:28:53;16.03;;;15.33;;
18021;SDS011;9136;48.822;7.966;2023-04-03T15:32:12;15.40;;;14.70;;
18021;SDS011;9136;48.822;7.966;2023-04-03T15:35:22;15.37;;;14.67;;
18021;SDS011;9136;48.822;7.966;2023-04-03T15:38:15;16.10;;;15.40;;
18021;SDS011;9136;48.822;7.966;2023-04-03T15:44:50;17.67;;;16.90;;
18021;SDS011;9136;48.822;7.966;2023-04-03T15:47:50;14.00;;;13.40;;
18021;SDS011;9136;48.822;7.966;2023-04-03T15:50:40;17.43;;;16.70;;
18021;SDS011;9136;48.822;7.966;2023-04-03T15:53:50;18.73;;;17.93;;
18021;SDS011;9136;48.822;7.966;2023-04-03T15:56:56;16.57;;;15.87;;
18021;SDS011;9136;48.822;7.966;2023-04-03T15:59:47;15.87;;;15.17;;
18021;SDS011;9136;48.822;7.966;2023-04-03T16:03:51;17.77;;;16.97;;
18021;SDS011;9136;48.822;7.966;2023-04-03T16:09:44;14.97;;;14.37;;
18021;SDS011;9136;48.822;7.966;2023-04-03T16:13:04;18.53;;;17.73;;
18021;SDS011;9136;48.822;7.966;2023-04-03T16:19:41;16.40;;;15.70;;
18021;SDS011;9136;48.822;7.966;2023-04-03T16:22:43;16.83;;;16.13;;
18021;SDS011;9136;48.822;7.966;2023-04-03T16:28:40;16.17;;;15.47;;
18021;SDS011;9136;48.822;7.966;2023-04-03T16:31:33;18.70;;;17.90;;
18021;SDS011;9136;48.822;7.966;2023-04-03T16:34:24;16.97;;;16.27;;
18021;SDS011;9136;48.822;7.966;2023-04-03T16:38:00;16.13;;;15.43;;
18021;SDS011;9136;48.822;7.966;2023-04-03T16:55:25;16.47;;;15.77;;
18021;SDS011;9136;48.822;7.966;2023-04-03T16:58:36;16.87;;;16.17;;
18021;SDS011;9136;48.822;7.966;2023-04-03T17:01:24;16.17;;;15.47;;
18021;SDS011;9136;48.822;7.966;2023-04-03T17:04:48;14.53;;;13.93;;
18021;SDS011;9136;48.822;7.966;2023-04-03T17:07:37;17.20;;;16.40;;
18021;SDS011;9136;48.822;7.966;2023-04-03T17:14:51;14.83;;;14.20;;
18021;SDS011;9136;48.822;7.966;2023-04-03T17:18:15;18.10;;;17.30;;
18021;SDS011;9136;48.822;7.966;2023-04-03T17:21:31;17.00;;;16.30;;
18021;SDS011;9136;48.822;7.966;2023-04-03T17:24:23;17.37;;;16.63;;
18021;SDS011;9136;48.822;7.966;2023-04-03T17:27:11;17.43;;;16.63;;
18021;SDS011;9136;48.822;7.966;2023-04-03T17:30:04;18.03;;;17.23;;
18021;SDS011;9136;48.822;7.966;2023-04-03T17:33:28;16.97;;;16.07;;
18021;SDS011;9136;48.822;7.966;2023-04-03T17:36:23;17.37;;;16.63;;
18021;SDS011;9136;48.822;7.966;2023-04-03T17:42:59;16.13;;;15.43;;
18021;SDS011;9136;48.822;7.966;2023-04-03T17:45:52;16.60;;;15.90;;
18021;SDS011;9136;48.822;7.966;2023-04-03T17:48:53;17.10;;;16.40;;
18021;SDS011;9136;48.822;7.966;2023-04-03T17:52:07;16.47;;;15.67;;
18021;SDS011;9136;48.822;7.966;2023-04-03T17:55:00;16.83;;;16.13;;
18021;SDS011;9136;48.822;7.966;2023-04-03T17:58:03;15.53;;;14.83;;
18021;SDS011;9136;48.822;7.966;2023-04-03T18:04:19;17.03;;;16.33;;
18021;SDS011;9136;48.822;7.966;2023-04-03T18:07:11;18.47;;;17.67;;
18021;SDS011;9136;48.822;7.966;2023-04-03T18:10:28;17.40;;;16.67;;
18021;SDS011;9136;48.822;7.966;2023-04-03T18:13:24;17.23;;;16.47;;
18021;SDS011;9136;48.822;7.966;2023-04-03T18:27:39;16.90;;;16.20;;
18021;SDS011;9136;48.822;7.966;2023-04-03T19:16:55;18.07;;;17.27;;
18021;SDS011;9136;48.822;7.966;2023-04-03T19:19:52;19.37;;;18.57;;
18021;SDS011;9136;48.822;7.966;2023-04-03T19:23:20;22.83;;;21.83;;
18021;SDS011;9136;48.822;7.966;2023-04-03T19:26:32;19.97;;;19.07;;
18021;SDS011;9136;48.822;7.966;2023-04-03T19:33:11;18.97;;;18.17;;
18021;SDS011;9136;48.822;7.966;2023-04-03T19:36:10;19.83;;;18.93;;
18021;SDS011;9136;48.822;7.966;2023-04-03T19:39:00;20.10;;;19.13;;